Main page
METAR-TAF:

METAR-TAF

Airports :

Stockholm Arlanda Airport

Stockholm-Arlanda, Sweden

latitude: 59-39N, longitude: 017-57E, elevation: 38 m

Current weather observation

The report was made 38 minutes ago, at 05:20 UTC
Wind 8 kt from the South/Southeast
Temperature 14°C
Humidity 100%
Pressure 1027 hPa
Visibility: 2100 m
Overcast at a height of 200 ft
mist

METAR: ESSA 250520Z 16008KT 2100 BR OVC002 14/14 Q1027 BECMG 5000 NSW

Time: 07:58 (05:58 UTC)

Forecast

The report was made 28 minutes ago, at 05:30 UTC
Forecast valid from 25 at 06 UTC to 26 at 06 UTC
Wind 6 kt from the South
Visibility: 0800 m
at a height of 200 ft
fog
Becoming
from 25 at 06 UTC to 25 at 07 UTC
Visibility 10 km or more
Scattered clouds at a height of 400 ft
Probability 40%
from 25 at 07 UTC to 25 at 09 UTC
Broken clouds at a height of 400 ft

TAF: ESSA 250530Z 2506/2606 18006KT 0800 FG VV002 BECMG 2506/2507 9999 NSW SCT004 PROB40 2507/2509 BKN004

Weather observations and forecasts of more than 4000 airports (METAR and TAF reports).

The available stations are represented by yellow and red dots on the map.

Hover mouse over dot to see the name of the station.

Then click to see weather observations and forecasts.

To change the map : click on the green buttons with a black cross to zoom in, on the green button with a dash to zoom out, or on the green arrows for adjacent maps.


METAR-TAF: